ハリファックス国際空港の過去48時間の天気

ハリファックス国際空港 (Halifax International Airport )

現在時刻: 8/18 10:23 ADT (8/18 13:23 UTC) 以下の時間は現地時間です。

過去48時間のMETAR気象情報
時間 風向 風速(m/s) 視程 気温(℃) 湿度(%) 気圧(hPa) 天気現象
18 10:12 南南東 6 10km以上 18 88 1011 もや
18 10:00 5 8050m 17 100 1011.1 弱い雨 もや
18 09:46 4 6450m 17 94 1011 弱い雨 もや
18 09:24 6 6450m 17 94 1011 もや
18 09:12 6 4000m 17 100 1011.2 もや
18 09:00 6 6450m 17 94 1011.3 もや
18 08:39 4 6450m 17 94 1011 もや
18 08:24 5 4850m 17 94 1011 もや 周辺でしゅう雨
18 08:00 4 4850m 16 100 1011 もや
18 07:46 4 4850m 16 100 1011 もや
18 07:15 4 4000m 16 100 1011.1 もや
18 07:00 4 1600m 16 100 1011.1 弱い霧雨 もや
18 06:24 4 2400m 16 100 1011.1 弱い霧雨 もや
18 06:00 4 2400m 17 94 1010.9 弱い霧雨 もや
18 05:30 5 3200m 17 100 1010.5 弱い霧雨 もや
18 05:09 6 10km以上 18 94 1010.2 弱い霧雨
18 05:00 5 10km以上 17 100 1010.2
18 04:00 5 10km以上 18 94 1010.4
18 03:00 4 10km以上 18 100 1010.2
18 02:00 5 10km以上 19 94 1009.8
18 01:00 6 4850m 19 100 1010 もや
18 00:35 南南東 6 1200m 19 100 1010.2 弱い霧雨 もや
18 00:14 南南東 4 800m 19 100 1010.4
18 00:00 南南東 4 1600m 19 100 1010.5 もや
17 23:48 南南東 4 1600m 19 100 1010.7 もや
17 23:20 6 6450m 20 94 1010.8 もや
17 23:00 7 4000m 20 100 1011 もや
17 22:34 7 3200m 20 100 1011 もや
17 22:25 南南東 6 1200m 20 100 1011 弱い霧雨 もや
17 22:07 南南東 6 400m 20 100 1011.2
17 22:00 南南東 7 800m 20 100 1011
17 21:42 南南東 6 800m 21 100 1011
17 21:17 南東 7 1200m 21 100 1010.8 もや
17 21:00 南東 7 3200m 21 100 1010.9 もや
17 20:09 南東 6 4000m 21 100 1010.5 もや
17 19:51 東南東 8 1200m 21 100 1010.3 雨 もや
17 19:37 7 400m 21 100 1010.2 弱い雨 霧
17 19:25 7 800m 21 100 1010.1 弱い雨 霧
17 19:00 7 1600m 21 100 1010.1 弱い雨 もや
17 18:17 6 1600m 21 100 1010.4 弱い雨 もや
17 18:00 7 1000m 21 100 1010.4 もや
17 17:00 8 4000m 21 100 1010.8 もや
17 16:39 6 1200m 21 94 1010.8 弱い雨 もや
17 16:00 7 3200m 21 94 1011.4 雨 もや
17 15:00 7 4850m 20 100 1012 弱い雨 もや
17 14:43 東北東 6 4850m 20 100 1012 弱い雨 もや
17 14:26 東北東 5 3200m 20 100 1012 弱い雷雨 もや
17 14:20 6 4000m 20 100 1012.1 弱い雷雨 もや
17 14:00 7 6450m 20 100 1012.1 弱い雨 もや
17 13:00 6 10km以上 19 100 1012.5
17 12:12 6 4850m 18 100 1013.2 もや
17 12:00 7 3200m 18 100 1013.1 弱い雨 もや
17 11:00 6 1600m 18 100 1013.6 弱い雨 もや
17 10:00 東北東 6 1600m 18 94 1013.9 弱い雨 もや
17 09:00 東北東 6 2400m 17 100 1014.3 弱い雨 もや
17 08:00 北東 7 2400m 17 94 1014.2 弱い雨 もや
17 07:00 北東 6 4000m 16 100 1014.4 弱い雨 もや
17 06:15 北東 8 4000m 16 100 1014.4 弱い雨 もや
17 06:00 北東 7 8050m 16 100 1014.4 もや
17 05:51 北東 5 8050m 16 100 1014.5 もや
17 05:00 北北東 5 4000m 16 100 1015 弱い雨 もや
17 04:00 北北東 4 4000m 16 100 1015.6 弱い雨 もや
17 03:34 北北東 4 4000m 17 94 1016 弱い雨 もや
17 03:20 北東 5 8050m 17 94 1016.1 弱い雨 もや
17 03:00 北東 4 10km以上 17 94 1016.1 弱い雨
17 02:00 北東 5 10km以上 17 94 1016.5
17 01:19 東北東 5 10km以上 17 94 1016.9 弱い雨
17 01:00 北東 5 10km以上 17 88 1017
17 00:13 北東 3 10km以上 17 88 1017.9 弱い雨
17 00:00 北東 3 10km以上 17 88 1018
16 23:00 東北東 3 10km以上 17 83 1018.7
16 22:00 東北東 3 10km以上 18 77 1019.1
16 21:00 東北東 3 10km以上 19 68 1018.9
16 20:00 東北東 4 10km以上 20 64 1019.2
16 19:00 東北東 5 10km以上 22 60 1019.4
16 18:00 5 10km以上 23 57 1019.4
16 17:00 8 10km以上 24 50 1019.5
CYHZ 181312Z 16011KT 6SM BR FEW005 OVC014 18/16 A2985 RMK SF2SC6 CIG RAG SLP110 DENSITY ALT 1100FT
CYHZ 181300Z 17010G16KT 5SM -RA BR BKN006 OVC014 17/17 A2985 RMK SF5SC3 CIG RAG SLP111 DENSITY ALT 1000FT
CYHZ 181246Z 18008G15KT 4SM -RA BR BKN005 OVC014 17/16 A2985 RMK SF6SC2 CIG RAG SLP110 DENSITY ALT 900FT
CYHZ 181224Z 18011G17KT 4SM BR SCT005 BKN014 BKN160 BKN220 17/16 A2985 RMK SF4SC2AC1CC1 CC TR SLP110 DENSITY ALT 1000FT
CYHZ 181212Z 19011G16KT 2 1/2SM BR BKN006 OVC014 17/17 A2986 RMK SF5SC3 CIG RAG SLP112 DENSITY ALT 1000FT
CYHZ 181200Z 18012G17KT 4SM BR SCT006 BKN014 17/16 A2986 RMK SF4SC3 CIG RAG SLP113 DENSITY ALT 900FT
CYHZ 181139Z 19008G15KT 4SM BR SCT005 BKN012 BKN220 17/16 A2985 RMK SF4SC2CC1 CC TR VIS AND CIG LWR SE-S SLP110 DENSITY ALT 900FT
CYHZ 181124Z 18010G16KT 3SM BR VCSH BKN005 BKN015 17/16 A2985 RMK SF5SC2 CIG RAG SLP110 DENSITY ALT 900FT
CYHZ 181100Z 17008KT 3SM BR SCT004 BKN015 16/16 A2985 RMK SF4SC3 CIG RAG SLP110 DENSITY ALT 900FT
CYHZ 181046Z 17008KT 3SM BR SCT005 BKN015 16/16 A2985 RMK SF3SC4 VIS NE HIER SLP110 DENSITY ALT 900FT
CYHZ 181015Z 18008KT 2 1/2SM BR SCT005 OVC012 16/16 A2985 RMK SF3SC5 CIG RAG SLP111 DENSITY ALT 800FT
CYHZ 181000Z 17007KT 1SM R23/P6000FT/D -DZ BR OVC005 16/16 A2985 RMK ST8 VIS VRB 3/4-1 1/4 CIG VRB 4-7 SLP111 DENSITY ALT 800FT
CYHZ 180924Z 18007KT 1 1/2SM -DZ BR OVC003 16/16 A2985 RMK ST8 VIS HYR E 2-4 CIG VRB 3-8 SLP111 DENSITY ALT 900FT
CYHZ 180900Z 18008KT 1 1/2SM -DZ BR OVC005 17/16 A2985 RMK ST8 CIG VRB 4-7 SLP109 DENSITY ALT 900FT
CYHZ 180830Z 19009G15KT 2SM -DZ BR OVC005 17/17 A2983 RMK ST8 VIS VRB 1 1/2-2 1/2 SLP105 DENSITY ALT 1000FT
CYHZ 180809Z 18011KT 10SM -DZ OVC009 18/17 A2983 RMK ST8 CIG VRB 9-14 SLP102 DENSITY ALT 1000FT
CYHZ 180800Z 18009KT 15SM OVC015 17/17 A2983 RMK SC8 SLP102 DENSITY ALT 1000FT
CYHZ 180700Z 17009KT 15SM OVC015 18/17 A2983 RMK SC8 SLP104 DENSITY ALT 1100FT
CYHZ 180600Z 19008KT 12SM FEW007 BKN021 18/18 A2983 RMK SF1SC7 SF TR SLP102 DENSITY ALT 1100FT
CYHZ 180500Z 18010KT 8SM SCT007 BKN021 19/18 A2982 RMK SF3SC3 SLP098 DENSITY ALT 1200FT
CYHZ 180400Z 17012G21KT 3SM BR BKN005 OVC010 19/19 A2982 RMK ST7SC1 SLP100 DENSITY ALT 1200FT
CYHZ 180335Z 16011KT 3/4SM R23/P6000FT/N R14/P6000FT/N -DZ BR OVC003 19/19 A2983 RMK ST8 VIS VRB 1/2-1 SLP102 DENSITY ALT 1200FT
CYHZ 180314Z 15008KT 1/2SM R23/P6000FT/N R14/P6000FT/N FG OVC002 19/19 A2983 RMK ST8 SLP104 DENSITY ALT 1200FT
CYHZ 180300Z 16007KT 1SM R23/P6000FT/N R14/P6000FT/N BR BKN003 OVC014 19/19 A2983 RMK SF7SC1 SLP105 DENSITY ALT 1200FT
CYHZ 180248Z 16008KT 1SM R23/P6000FT/N R14/P6000FT/N BR BKN003 OVC014 19/19 A2984 RMK SF7SC1 SLP107 DENSITY ALT 1200FT
CYHZ 180220Z 17011KT 4SM BR BKN005 OVC016 20/19 A2984 RMK SF6SC2 SLP108 DENSITY ALT 1200FT
CYHZ 180200Z 17013G19KT 2 1/2SM BR OVC006 20/20 A2985 RMK ST8 SLP110 DENSITY ALT 1300FT
CYHZ 180134Z 17013KT 2SM BR OVC003 20/20 A2985 RMK ST8 SLP110 DENSITY ALT 1300FT
CYHZ 180125Z 16011G17KT 3/4SM R23/4000VP6000FT/U R14/5500VP6000FT/U -DZ BR OVC004 20/20 A2985 RMK ST8 VIS VRB 1/2-1 SLP110 DENSITY ALT 1300FT
CYHZ 180107Z 16011G19KT 1/4SM R23/2800V5000FT/D R14/4500VP6000FT/D FG VV002 20/20 A2986 RMK FG8 SLP112 DENSITY ALT 1300FT
CYHZ 180100Z 15014G19KT 1/2SM R23/4000VP6000FT/D R14/P6000FT/D FG VV002 20/20 A2985 RMK FG8 SLP110 DENSITY ALT 1300FT
CYHZ 180042Z 15012G20KT 1/2SM R23/P6000FT/N R14/P6000FT/N FG OVC002 21/21 A2985 RMK ST8 VIS VRB 3/8-5/8 SLP110 DENSITY ALT 1400FT
CYHZ 180017Z 14013G19KT 3/4SM R23/P6000FT/N R14/P6000FT/N BR OVC002 21/21 A2984 RMK ST8 VIS VRB 1/2-1 SLP108 DENSITY ALT 1500FT
CYHZ 180000Z 14013G20KT 2SM BR OVC003 21/21 A2985 RMK ST8 SLP109 DENSITY ALT 1500FT
CYHZ 172309Z 13012G17KT 2 1/2SM BR OVC004 21/21 A2983 RMK ST8 SLP105 DENSITY ALT 1500FT
CYHZ 172251Z 11016KT 3/4SM R14/P6000FT/U RA BR OVC003 21/21 A2983 RMK ST8 VIS VRB 1/2-1 CVCTV CLD EMBD SLP103 DENSITY ALT 1500FT
CYHZ 172237Z 10014KT 1/4SM R14/P6000FT/D -RA FG VV003 21/21 A2983 RMK FG8 SLP102 DENSITY ALT 1400FT
CYHZ 172225Z 10013G18KT 1/2SM R14/P6000FT/U -RA FG OVC002 21/21 A2982 RMK ST8 VIS VRB 3/8-5/8 SLP101 DENSITY ALT 1400FT
CYHZ 172200Z 09013KT 1SM R14/P6000FT/U -RA BR BKN003 OVC021 21/21 A2982 RMK ST5NS3 VIS VRB 3/4- 11/4 SLP101 DENSITY ALT 1400FT
CYHZ 172117Z 09011G22KT 1SM R23/P6000FT/U R14/P6000FT/N -RA BR OVC003 21/21 A2983 RMK ST8 VIS VRB 3/4-11/4 SLP104 DENSITY ALT 1400FT
CYHZ 172100Z 09014G19KT 5/8SM BR OVC002 21/21 A2983 RMK ST8 VIS VRB 3/8-1 SLP104 DENSITY ALT 1400FT
CYHZ 172000Z 10015KT 2 1/2SM BR OVC004 21/21 A2984 RMK SC8 VIS VRB 13/4-4 SLP108 DENSITY ALT 1400FT
CYHZ 171939Z 08012KT 3/4SM -RA BR OVC002 21/20 A2984 RMK SC8 VIS VRB 1/2-1 PRESFR SLP108 DENSITY ALT 1400FT
CYHZ 171900Z 10014G21KT 2SM RA BR OVC004 21/20 A2986 RMK SC8 VIS VRB 11/2-21/2 CIG VRB 2-6 SLP114 DENSITY ALT 1400FT
CYHZ 171800Z 09014G20KT 3SM -RA BR OVC005 20/20 A2988 RMK SC8 VIS VRB 21/4-4 CIG VRB 3-7 SLP120 DENSITY ALT 1300FT
CYHZ 171743Z 07012KT 3SM -RA BR OVC004 20/20 A2988 RMK SC8 CIG VRB 2-6 SLP120 DENSITY ALT 1300FT
CYHZ 171726Z 07010G17KT 2SM -TSRA BR BKN005 OVC035CB 20/20 A2988 RMK SC7CB1 CB NE LTGIC CIG VRB 3-7 SLP120 DENSITY ALT 1300FT
CYHZ 171720Z 08012G20KT 2 1/2SM -TSRA BR BKN006 OVC030CB 20/20 A2988 RMK SC7CB1 VIS VRB 4-8 SLP121 DENSITY ALT 1300FT
CYHZ 171700Z 09013KT 4SM -RA BR OVC005 20/20 A2988 RMK SC8 CIG VRB 3-7 SLP121 DENSITY ALT 1300FT
CYHZ 171600Z 08011KT 10SM OVC005 19/19 A2989 RMK SC8 VIS VRB 3-7 SLP125 DENSITY ALT 1200FT
CYHZ 171512Z 08012G19KT 3SM BR OVC005 18/18 A2991 RMK SC8 CIG VRB 3-7 SLP132 DENSITY ALT 1000FT
CYHZ 171500Z 08013G19KT 2SM -RA BR OVC004 18/18 A2991 RMK SC8 VIS VRB 11/2-21/2 CIG VRB 2-6 SLP131 DENSITY ALT 1000FT
CYHZ 171400Z 08012G22KT 1SM -RA BR OVC005 18/18 A2992 RMK SC8 VIS VRB 3/4-11/4 CIG VRB 3-7 SLP136 DENSITY ALT 1000FT
CYHZ 171300Z 07011G16KT 1SM -RA BR BKN006 OVC012 18/17 A2993 RMK ST5SC3 VIS VRB 3/4-11/4 CIG VRB 4-8 SLP139 DENSITY ALT 900FT
CYHZ 171200Z 06012G17KT 1 1/2SM -RA BR BKN005 OVC012 17/17 A2995 RMK ST6SC3 VIS VRB 1-2 CIG VRB 4-8 SLP143 DENSITY ALT 900FT
CYHZ 171100Z 05014G22KT 1 1/2SM -RA BR BKN007 OVC014 17/16 A2995 RMK ST5SC3 VIS VRB 1-2 CIG VRB 5-9 SLP142 DENSITY ALT 800FT
CYHZ 171000Z 05011G21KT 2 1/2SM -RA BR OVC005 16/16 A2995 RMK SC8 CIG VRB 5-8 PCPN VRY LGT SLP144 DENSITY ALT 800FT
CYHZ 170915Z 04015KT 2 1/2SM -RA BR OVC004 16/16 A2995 RMK SF8 CIG VRB 4-8 PCPN VRY LGT SLP144 DENSITY ALT 800FT
CYHZ 170900Z 04014KT 5SM BR OVC005 16/16 A2995 RMK SC8 SLP144 DENSITY ALT 800FT
CYHZ 170851Z 04010G18KT 5SM BR OVC006 16/16 A2995 RMK SC8 CIG VRB 4-7 SLP145 DENSITY ALT 800FT
CYHZ 170800Z 03010G15KT 2 1/2SM -RA BR OVC004 16/16 A2997 RMK SC8 VIS VRB 1 3/4-4 SLP150 DENSITY ALT 700FT
CYHZ 170700Z 03008KT 2 1/2SM -RA BR FEW016 OVC053 16/16 A2999 RMK SC1SC8 PCPN VRY LGT SLP156 DENSITY ALT 700FT
CYHZ 170634Z 03008KT 2 1/2SM -RA BR BKN012 OVC050 17/16 A3000 RMK SC5SC3 VIS VRB 1 3/4-4 SLP160 DENSITY ALT 700FT
CYHZ 170620Z 04009KT 5SM -RA BR BKN013 OVC053 17/16 A3000 RMK SC5SC3 PCPN VRY LGT SLP161 DENSITY ALT 700FT
CYHZ 170600Z 04008KT 8SM -RA SCT012 OVC085 17/16 A3000 RMK SC4AC4 PCPN VRY LGT SLP161 DENSITY ALT 800FT
CYHZ 170500Z 04009KT 15SM SCT014 BKN045 OVC087 17/16 A3001 RMK SC4SC1AC3 SLP165 DENSITY ALT 800FT
CYHZ 170419Z 06010KT 10SM -RA FEW077 OVC097 17/16 A3003 RMK AC2AC6 PCPN VRY LGT SLP169 DENSITY ALT 800FT
CYHZ 170400Z 05009KT 15SM FEW018 SCT071 OVC120 17/15 A3003 RMK SC1AC2AC5 SLP170 DENSITY ALT 800FT
CYHZ 170313Z 04006KT 15SM -RA FEW018 SCT088 OVC130 17/15 A3005 RMK SC1AC3AC4 PCPN VRY LGT SLP179 DENSITY ALT 700FT
CYHZ 170300Z 05006KT 15SM OVC130 17/15 A3006 RMK AC8 SLP180 DENSITY ALT 700FT
CYHZ 170200Z 06005KT 15SM SCT140 OVC210 17/14 A3008 RMK AC3CC5 SLP187 DENSITY ALT 700FT
CYHZ 170100Z 06006KT 15SM FEW076 OVC220 18/14 A3009 RMK AC1CC8 AC TR SLP191 DENSITY ALT 800FT
CYHZ 170000Z 07006KT 15SM FEW046 BKN220 BKN250 19/13 A3008 RMK CF1CC5CI1 CF TR CONTRAILS SLP189 DENSITY ALT 900FT
CYHZ 162300Z 07007KT 15SM FEW046 SCT160 BKN250 20/13 A3009 RMK CF1AC3CI3 CF TR CONTRAILS SLP192 DENSITY ALT 1100FT
CYHZ 162200Z 07010G15KT 050V110 15SM SCT040 BKN220 22/14 A3010 RMK CU4CI3 SLP194 DENSITY ALT 1200FT
CYHZ 162100Z 08009G16KT 15SM BKN042 BKN059 23/14 A3010 RMK CU5CU1 SLP194 DENSITY ALT 1400FT
CYHZ 162000Z 08015G20KT 15SM BKN044 BKN240 24/13 A3010 RMK CU5CI1 SLP195 DENSITY ALT 1500FT